createdAt,value
2017-08-14T06:23:20.603Z,1011.03
2017-08-14T07:16:02.784Z,1010.96
2017-08-14T07:16:39.781Z,1010.67
2017-08-14T07:22:36.309Z,1010.77
2017-08-14T07:23:12.337Z,1010.68
2017-08-14T07:24:24.525Z,1010.80
2017-08-14T07:25:44.602Z,1010.69
2017-08-14T07:31:16.006Z,1010.72
2017-08-14T07:32:05.280Z,1010.68
2017-08-14T07:32:41.270Z,1010.65
2017-08-14T07:33:36.508Z,1010.67
2017-08-14T07:35:01.586Z,1010.69
2017-08-14T07:35:49.137Z,1010.64
2017-08-14T07:36:25.358Z,1010.64
2017-08-14T07:38:06.671Z,1010.65
2017-08-14T07:38:42.967Z,1010.65
2017-08-14T07:39:34.509Z,1010.64
2017-08-14T07:40:32.192Z,1010.61
2017-08-14T07:41:45.282Z,1010.64
2017-08-14T07:42:25.401Z,1010.65
2017-08-14T07:43:10.636Z,1010.63
2017-08-14T07:44:22.824Z,1010.56
2017-08-14T07:44:59.816Z,1010.52
2017-08-14T07:45:36.764Z,1010.60
2017-08-14T07:46:29.760Z,1010.56
2017-08-14T07:47:44.965Z,1010.55
2017-08-14T07:48:23.067Z,1010.52
2017-08-14T07:49:02.582Z,1010.48
2017-08-14T07:49:38.990Z,1010.54
2017-08-14T07:50:27.630Z,1010.55
2017-08-14T07:51:03.597Z,1010.56
2017-08-14T07:51:53.955Z,1010.49
2017-08-14T07:52:31.668Z,1010.46
2017-08-14T07:53:13.360Z,1010.49
2017-08-14T07:54:00.732Z,1010.46
2017-08-14T07:54:38.308Z,1010.46
2017-08-14T07:55:47.864Z,1010.57
2017-08-14T07:56:53.902Z,1010.47
2017-08-14T07:57:29.341Z,1010.54
2017-08-14T07:58:19.069Z,1010.42
2017-08-14T07:59:20.076Z,1010.52
2017-08-14T08:00:01.127Z,1010.50
2017-08-14T08:00:48.446Z,1010.46
2017-08-14T08:01:43.733Z,1010.46
2017-08-14T08:02:20.711Z,1010.45
2017-08-14T08:03:26.540Z,1010.68
2017-08-14T08:04:23.965Z,1010.54
2017-08-14T08:05:01.543Z,1010.52
2017-08-14T08:06:19.998Z,1010.43
2017-08-14T08:06:57.333Z,1010.50
2017-08-14T08:08:04.477Z,1010.60
2017-08-14T08:10:14.069Z,1010.52
2017-08-14T08:11:16.909Z,1010.53
2017-08-14T08:12:03.391Z,1010.56
2017-08-14T08:13:02.459Z,1010.57
2017-08-14T08:13:48.648Z,1010.47
2017-08-14T08:14:45.361Z,1010.53
2017-08-14T08:15:45.227Z,1010.59
2017-08-14T08:16:20.480Z,1010.56
2017-08-14T08:17:16.403Z,1010.50
2017-08-14T08:17:53.689Z,1010.46
2017-08-14T08:18:31.516Z,1010.65
2017-08-14T08:19:21.936Z,1010.53
2017-08-14T08:19:58.276Z,1010.65
2017-08-14T08:20:47.984Z,1010.52
2017-08-14T08:21:59.642Z,1010.63
2017-08-14T08:22:36.495Z,1010.50
2017-08-14T08:23:16.636Z,1010.52
2017-08-14T08:23:56.894Z,1010.54
2017-08-14T08:24:33.694Z,1010.52
2017-08-14T08:25:18.653Z,1010.52
2017-08-14T08:26:01.000Z,1010.61
2017-08-14T08:26:54.440Z,1010.54
2017-08-14T08:27:30.701Z,1010.57
2017-08-14T08:28:06.645Z,1010.58
2017-08-14T08:29:00.138Z,1010.58
2017-08-14T08:29:35.347Z,1010.56
2017-08-14T08:30:17.864Z,1010.51
2017-08-14T08:31:07.673Z,1010.51
2017-08-14T08:32:17.874Z,1010.49
2017-08-14T08:32:53.695Z,1010.56
2017-08-14T08:33:30.497Z,1010.52
2017-08-14T08:34:06.175Z,1010.46
2017-08-14T08:34:59.948Z,1010.49
2017-08-14T08:35:36.168Z,1010.52
2017-08-14T08:36:18.223Z,1010.62
2017-08-14T08:37:16.229Z,1010.51
2017-08-14T08:37:57.152Z,1010.50
2017-08-14T08:38:51.847Z,1010.48
2017-08-14T08:39:28.844Z,1010.53
2017-08-14T08:40:11.416Z,1010.52
2017-08-14T08:40:56.943Z,1010.47
2017-08-14T08:42:33.296Z,1010.49
2017-08-14T08:43:08.513Z,1010.42
2017-08-14T08:43:48.855Z,1010.47
2017-08-14T08:44:25.227Z,1010.52
2017-08-14T08:45:02.201Z,1010.45
2017-08-14T08:45:39.075Z,1010.47
2017-08-14T08:46:54.299Z,1010.48
2017-08-14T08:47:30.162Z,1010.53
2017-08-14T08:49:20.916Z,1010.56
2017-08-14T08:50:03.142Z,1010.53
2017-08-14T08:50:39.618Z,1010.64
2017-08-14T08:51:51.212Z,1010.55
2017-08-14T08:52:57.297Z,1010.66
2017-08-14T08:54:15.323Z,1010.56
2017-08-14T08:54:52.439Z,1010.59
2017-08-14T08:55:30.039Z,1010.59
2017-08-14T08:56:06.925Z,1010.49
2017-08-14T08:56:41.955Z,1010.47
2017-08-14T08:57:21.396Z,1010.53
2017-08-14T08:58:01.347Z,1010.57
2017-08-14T08:58:39.449Z,1010.57
2017-08-14T08:59:14.596Z,1010.45
2017-08-14T08:59:50.697Z,1010.48
2017-08-14T09:00:26.660Z,1010.47
2017-08-14T09:01:31.874Z,1010.48
2017-08-14T09:02:13.528Z,1010.46
2017-08-14T09:02:53.623Z,1010.49
2017-08-14T09:03:30.517Z,1010.48
2017-08-14T09:04:10.699Z,1010.48
2017-08-14T09:04:51.457Z,1010.50
2017-08-14T09:06:21.677Z,1010.47
2017-08-14T09:07:05.029Z,1010.39
2017-08-14T09:07:39.955Z,1010.45
2017-08-14T09:08:15.544Z,1010.45
2017-08-14T09:08:50.656Z,1010.52
2017-08-14T09:09:30.067Z,1010.45
2017-08-14T09:10:06.084Z,1010.46
2017-08-14T09:10:50.623Z,1010.46
2017-08-14T09:11:40.691Z,1010.43
2017-08-14T09:12:20.844Z,1010.53
2017-08-14T09:12:57.215Z,1010.46
2017-08-14T09:13:33.400Z,1010.47
2017-08-14T09:14:21.080Z,1010.45
2017-08-14T09:14:57.476Z,1010.43
2017-08-14T09:15:34.741Z,1010.40
2017-08-14T09:16:12.937Z,1010.39
2017-08-14T09:16:50.316Z,1010.41
2017-08-14T09:17:26.640Z,1010.39
2017-08-14T09:18:46.152Z,1010.42
2017-08-14T09:19:24.659Z,1010.38
2017-08-14T09:20:01.453Z,1010.33
2017-08-14T09:20:37.504Z,1010.33
2017-08-14T09:21:15.488Z,1010.36
2017-08-14T09:21:53.426Z,1010.37
2017-08-14T09:22:28.948Z,1010.44
2017-08-14T09:23:04.266Z,1010.42
2017-08-14T09:23:39.595Z,1010.41
2017-08-14T09:24:14.934Z,1010.41
2017-08-14T09:24:50.267Z,1010.39
2017-08-14T09:25:35.180Z,1010.39
2017-08-14T09:26:20.527Z,1010.34
2017-08-14T09:27:00.624Z,1010.36
2017-08-14T09:27:38.755Z,1010.39
2017-08-14T09:28:14.113Z,1010.34
2017-08-14T09:28:49.428Z,1010.44
2017-08-14T09:29:27.964Z,1010.43
2017-08-14T09:30:08.075Z,1010.41
2017-08-14T09:30:43.403Z,1010.41
2017-08-14T09:31:18.736Z,1010.41
2017-08-14T09:31:56.012Z,1010.36
2017-08-14T09:32:31.022Z,1010.44
2017-08-14T09:33:10.472Z,1010.38
2017-08-14T09:33:49.639Z,1010.41
2017-08-14T09:34:27.372Z,1010.49
2017-08-14T09:35:03.325Z,1010.45
2017-08-14T09:35:41.255Z,1010.44
2017-08-14T09:36:41.816Z,1010.46
2017-08-14T09:37:38.085Z,1010.40
2017-08-14T09:38:13.427Z,1010.37
2017-08-14T09:38:48.735Z,1010.43
2017-08-14T09:39:24.027Z,1010.40
2017-08-14T09:40:00.315Z,1010.43
2017-08-14T09:40:37.224Z,1010.46
2017-08-14T09:41:13.228Z,1010.41
2017-08-14T09:41:56.759Z,1010.46
2017-08-14T09:42:32.869Z,1010.45
2017-08-14T09:43:09.800Z,1010.48
2017-08-14T09:43:48.912Z,1010.48
2017-08-14T09:44:28.321Z,1010.42
2017-08-14T09:45:03.244Z,1010.41
2017-08-14T09:45:40.572Z,1010.41
2017-08-14T09:46:16.484Z,1010.36
2017-08-14T09:46:54.372Z,1010.39
2017-08-14T09:47:29.359Z,1010.41
2017-08-14T09:48:19.111Z,1010.41
2017-08-14T09:48:54.435Z,1010.42
2017-08-14T09:49:29.767Z,1010.38
2017-08-14T09:50:21.824Z,1010.36
2017-08-14T09:51:10.342Z,1010.41
2017-08-14T09:51:48.556Z,1010.37
2017-08-14T09:52:46.268Z,1010.34
2017-08-14T09:53:28.714Z,1010.38
2017-08-14T09:54:11.672Z,1010.29
2017-08-14T09:54:53.260Z,1010.31
2017-08-14T09:55:31.543Z,1010.29
2017-08-14T09:57:43.022Z,1010.31
2017-08-14T09:58:50.322Z,1010.26
2017-08-14T09:59:25.835Z,1010.26
2017-08-14T10:00:13.955Z,1010.22
2017-08-14T10:00:49.261Z,1010.28
2017-08-14T10:01:31.313Z,1010.27
2017-08-14T10:02:29.136Z,1010.22
2017-08-14T10:03:42.654Z,1010.16
2017-08-14T10:04:17.775Z,1010.14
2017-08-14T10:05:24.674Z,1010.29
2017-08-14T10:06:32.333Z,1010.23
2017-08-14T10:07:09.125Z,1010.19
2017-08-14T10:07:50.169Z,1010.22
2017-08-14T10:08:26.213Z,1010.17
2017-08-14T10:09:03.090Z,1010.17
2017-08-14T10:09:38.431Z,1010.18
2017-08-14T10:10:17.924Z,1010.14
2017-08-14T10:11:12.355Z,1010.20
2017-08-14T10:11:48.359Z,1010.20
2017-08-14T10:12:30.683Z,1010.12
2017-08-14T10:13:37.791Z,1010.21
2017-08-14T10:14:21.318Z,1010.13
2017-08-14T10:14:59.488Z,1010.12
2017-08-14T10:15:40.548Z,1010.12
2017-08-14T10:16:16.535Z,1010.11
2017-08-14T10:16:51.889Z,1010.13
2017-08-14T10:17:56.481Z,1010.06
2017-08-14T10:18:32.141Z,1010.08
2017-08-14T10:19:20.211Z,1010.06
2017-08-14T10:20:27.753Z,1010.22
2017-08-14T10:21:26.411Z,1010.04
2017-08-14T10:22:38.549Z,1010.06
2017-08-14T10:23:49.594Z,1010.16
2017-08-14T10:25:29.530Z,1010.07
2017-08-14T10:26:35.884Z,1010.19
2017-08-14T10:27:50.087Z,1010.12
2017-08-14T10:28:33.437Z,1010.04
2017-08-14T10:29:08.771Z,1010.06
2017-08-14T10:29:44.079Z,1010.02
2017-08-14T10:30:19.608Z,1010.04
2017-08-14T10:30:57.938Z,1010.07
2017-08-14T10:31:58.879Z,1010.07
2017-08-14T10:32:34.189Z,1010.02
2017-08-14T10:33:22.821Z,1010.05
2017-08-14T10:33:59.287Z,1009.97
2017-08-14T10:34:53.780Z,1010.03
2017-08-14T10:35:51.508Z,1009.98
2017-08-14T10:36:28.451Z,1009.97
2017-08-14T10:37:36.845Z,1010.13
2017-08-14T10:38:31.157Z,1009.99
2017-08-14T10:39:06.520Z,1009.94
2017-08-14T10:40:04.227Z,1009.95
2017-08-14T10:40:39.558Z,1009.99
2017-08-14T10:41:50.453Z,1009.97
2017-08-14T10:42:34.555Z,1009.96
2017-08-14T10:43:11.952Z,1009.97
2017-08-14T10:43:47.797Z,1009.95
2017-08-14T10:44:27.959Z,1009.96
2017-08-14T10:45:13.941Z,1009.97
2017-08-14T10:45:50.505Z,1010.03
2017-08-14T10:46:36.336Z,1009.89
2017-08-14T10:47:12.361Z,1009.96
2017-08-14T10:47:47.675Z,1009.88
2017-08-14T10:48:55.172Z,1009.99
2017-08-14T10:50:13.916Z,1009.99
2017-08-14T10:51:23.541Z,1010.06
2017-08-14T10:52:05.722Z,1009.88
2017-08-14T10:52:41.328Z,1009.98
2017-08-14T10:53:32.645Z,1009.95
2017-08-14T10:54:25.924Z,1009.97
2017-08-14T10:55:00.933Z,1009.92
2017-08-14T10:55:37.812Z,1009.93
2017-08-14T10:56:16.376Z,1009.88
2017-08-14T10:57:33.288Z,1009.88
2017-08-14T10:58:08.607Z,1009.89
2017-08-14T10:58:58.339Z,1009.85
2017-08-14T11:00:06.203Z,1009.94
2017-08-14T11:01:14.505Z,1009.82
2017-08-14T11:02:18.030Z,1009.87
2017-08-14T11:03:05.163Z,1009.82
2017-08-14T11:04:17.663Z,1009.93
2017-08-14T11:05:03.820Z,1009.87
2017-08-14T11:05:41.723Z,1009.88
2017-08-14T11:06:20.677Z,1009.86
2017-08-14T11:07:03.999Z,1009.83
2017-08-14T11:07:40.484Z,1009.82
2017-08-14T11:08:19.685Z,1009.81
2017-08-14T11:08:58.227Z,1009.81
2017-08-14T11:10:05.535Z,1009.78
2017-08-14T11:10:40.879Z,1009.85
2017-08-14T11:11:16.208Z,1009.83
2017-08-14T11:11:51.535Z,1009.77
2017-08-14T11:12:29.796Z,1009.85
2017-08-14T11:13:07.009Z,1009.79
2017-08-14T11:13:43.906Z,1009.83
2017-08-14T11:14:51.555Z,1009.93
2017-08-14T11:15:37.056Z,1009.78
2017-08-14T11:16:24.156Z,1009.65
2017-08-14T11:17:10.098Z,1009.68
2017-08-14T11:17:52.423Z,1009.71
2017-08-14T11:18:46.943Z,1009.68
2017-08-14T11:19:56.671Z,1009.84
2017-08-14T11:20:42.308Z,1009.70
2017-08-14T11:21:20.626Z,1009.70
2017-08-14T11:21:56.147Z,1009.66
2017-08-14T11:23:08.285Z,1009.61
2017-08-14T11:23:47.749Z,1009.59
2017-08-14T11:25:02.133Z,1009.64
2017-08-14T11:25:44.903Z,1009.59
2017-08-14T11:26:51.127Z,1009.69
2017-08-14T11:27:27.787Z,1009.68
2017-08-14T11:28:09.439Z,1009.61
2017-08-14T11:28:46.743Z,1009.66
2017-08-14T11:29:37.760Z,1009.64
2017-08-14T11:30:14.051Z,1009.61
2017-08-14T11:30:55.040Z,1009.58
2017-08-14T11:31:34.379Z,1009.61
2017-08-14T11:32:19.892Z,1009.66
2017-08-14T11:32:56.164Z,1009.60
2017-08-14T11:34:04.145Z,1009.61
2017-08-14T11:34:41.371Z,1009.63
2017-08-14T11:35:24.384Z,1009.64
2017-08-14T11:36:05.450Z,1009.61
2017-08-14T11:36:43.364Z,1009.58
2017-08-14T11:37:30.922Z,1009.57
2017-08-14T11:38:14.956Z,1009.70
2017-08-14T11:38:59.899Z,1009.56
2017-08-14T11:39:40.927Z,1009.55
2017-08-14T11:40:47.032Z,1009.66
2017-08-14T11:41:26.131Z,1009.62
2017-08-14T11:42:03.707Z,1009.55
2017-08-14T11:42:39.604Z,1009.48
2017-08-14T11:43:16.889Z,1009.62
2017-08-14T11:44:02.813Z,1009.56
2017-08-14T11:44:38.376Z,1009.57
2017-08-14T11:45:17.257Z,1009.53
2017-08-14T11:46:06.664Z,1009.56
2017-08-14T11:47:08.900Z,1009.57
2017-08-14T11:49:55.592Z,1009.52
2017-08-14T11:50:31.192Z,1009.47
2017-08-14T11:51:23.497Z,1009.41
2017-08-14T11:52:29.535Z,1009.59
2017-08-14T11:53:11.419Z,1009.51
2017-08-14T11:54:26.337Z,1009.43
2017-08-14T11:55:24.463Z,1009.41
2017-08-14T11:56:27.429Z,1009.45
2017-08-14T11:57:03.337Z,1009.40
2017-08-14T11:57:41.297Z,1009.37
2017-08-14T11:58:18.272Z,1009.42
2017-08-14T11:58:56.682Z,1009.44
2017-08-14T11:59:39.679Z,1009.43
2017-08-14T12:00:16.587Z,1009.48
2017-08-14T12:00:53.880Z,1009.34
2017-08-14T12:01:32.060Z,1009.30
2017-08-14T12:02:39.682Z,1009.40
2017-08-14T12:03:19.393Z,1009.38
2017-08-14T12:04:01.100Z,1009.34
2017-08-14T12:04:52.457Z,1009.25
2017-08-14T12:05:56.460Z,1009.31
2017-08-14T12:06:33.387Z,1009.35
2017-08-14T12:07:15.120Z,1009.30
2017-08-14T12:08:46.610Z,1009.27
2017-08-14T12:09:25.103Z,1009.30
2017-08-14T12:10:00.428Z,1009.37
2017-08-14T12:10:39.936Z,1009.22
2017-08-14T12:11:15.887Z,1009.30
2017-08-14T12:11:51.229Z,1009.29
2017-08-14T12:12:29.744Z,1009.38
2017-08-14T12:13:13.111Z,1009.24
2017-08-14T12:13:48.418Z,1009.35
2017-08-14T12:14:23.735Z,1009.36
2017-08-14T12:15:23.105Z,1009.31
2017-08-14T12:15:58.412Z,1009.29
2017-08-14T12:17:06.411Z,1009.39
2017-08-14T12:17:45.755Z,1009.26
2017-08-14T12:18:22.476Z,1009.17
2017-08-14T12:19:02.607Z,1009.32
2017-08-14T12:19:41.776Z,1009.15
2017-08-14T12:20:17.108Z,1009.15
2017-08-14T12:21:05.563Z,1009.23
2017-08-14T12:22:17.721Z,1009.23
2017-08-14T12:23:27.852Z,1009.22
2017-08-14T12:24:09.679Z,1009.15
2017-08-14T12:24:57.761Z,1009.13
2017-08-14T12:25:34.666Z,1009.17
2017-08-14T12:26:10.000Z,1009.22
2017-08-14T12:26:45.324Z,1009.15
2017-08-14T12:27:44.653Z,1009.15
2017-08-14T12:28:26.392Z,1009.24
2017-08-14T12:29:12.931Z,1009.22
2017-08-14T12:29:48.284Z,1009.16
2017-08-14T12:30:28.584Z,1009.12
2017-08-14T12:31:03.719Z,1009.13
2017-08-14T12:31:49.560Z,1009.18
2017-08-14T12:32:25.565Z,1009.16
2017-08-14T12:33:01.844Z,1009.26
2017-08-14T12:34:03.832Z,1009.20
2017-08-14T12:35:10.124Z,1009.26
2017-08-14T12:36:11.544Z,1009.20
2017-08-14T12:37:18.635Z,1009.17
2017-08-14T12:38:07.948Z,1009.23
2017-08-14T12:38:47.156Z,1009.15
2017-08-14T12:39:27.300Z,1009.14
2017-08-14T12:40:06.720Z,1009.17
2017-08-14T12:41:16.347Z,1009.16
2017-08-14T12:41:57.342Z,1009.16
2017-08-14T12:42:37.580Z,1009.18
2017-08-14T12:43:13.509Z,1009.17
2017-08-14T12:43:57.240Z,1009.13
2017-08-14T12:45:02.994Z,1009.20
2017-08-14T12:46:09.044Z,1009.03
2017-08-14T12:46:46.292Z,1008.96
2017-08-14T12:47:21.275Z,1008.90
2017-08-14T12:47:59.136Z,1008.98
2017-08-14T12:49:05.531Z,1009.06
2017-08-14T12:49:53.892Z,1008.94
2017-08-14T12:50:58.787Z,1009.07
2017-08-14T12:51:37.708Z,1008.87
2017-08-14T12:52:46.557Z,1009.04
2017-08-14T12:53:51.363Z,1008.78
2017-08-14T12:54:59.820Z,1008.87
2017-08-14T12:56:06.295Z,1008.80
2017-08-14T12:57:14.264Z,1008.89
2017-08-14T12:57:50.116Z,1008.83
2017-08-14T12:58:26.365Z,1008.85
2017-08-14T12:59:02.365Z,1008.82
2017-08-14T12:59:39.639Z,1008.81
2017-08-14T13:00:14.624Z,1008.80
2017-08-14T13:01:10.123Z,1008.81
2017-08-14T13:02:17.313Z,1008.89
2017-08-14T13:03:04.479Z,1008.74
2017-08-14T13:03:46.220Z,1008.71
2017-08-14T13:04:25.487Z,1008.76
2017-08-14T13:05:25.037Z,1008.70
2017-08-14T13:06:33.975Z,1008.69
2017-08-14T13:07:10.906Z,1008.74
2017-08-14T13:08:01.255Z,1008.69
2017-08-14T13:08:36.587Z,1008.65
2017-08-14T13:09:24.869Z,1008.65
2017-08-14T13:10:01.652Z,1008.70
2017-08-14T13:10:41.141Z,1008.74
2017-08-14T13:11:58.703Z,1008.75
2017-08-14T13:12:34.015Z,1008.72
2017-08-14T13:13:41.887Z,1008.84
2017-08-14T13:14:22.951Z,1008.63
2017-08-14T13:14:58.283Z,1008.63
2017-08-14T13:16:16.199Z,1008.56
2017-08-14T13:16:52.163Z,1008.63
2017-08-14T13:17:59.483Z,1008.70
2017-08-14T13:19:18.868Z,1008.54
2017-08-14T13:20:25.404Z,1008.63
2017-08-14T13:21:06.813Z,1008.57
2017-08-14T13:21:57.467Z,1008.51
2017-08-14T13:22:40.216Z,1008.53
2017-08-14T13:23:30.515Z,1008.59
2017-08-14T13:24:06.646Z,1008.59
2017-08-14T13:24:48.596Z,1008.57
2017-08-14T13:25:30.211Z,1008.49
2017-08-14T13:26:05.315Z,1008.55
2017-08-14T13:26:57.597Z,1008.47
2017-08-14T13:27:34.565Z,1008.47
2017-08-14T13:28:13.474Z,1008.45
2017-08-14T13:28:51.596Z,1008.52
2017-08-14T13:30:15.688Z,1008.40
2017-08-14T13:30:51.032Z,1008.48
2017-08-14T13:31:27.260Z,1008.42
2017-08-14T13:32:36.231Z,1008.42
2017-08-14T13:33:34.600Z,1008.39
2017-08-14T13:34:17.320Z,1008.35
2017-08-14T13:34:53.281Z,1008.34
2017-08-14T13:35:35.580Z,1008.36
2017-08-14T13:36:26.319Z,1008.33
2017-08-14T13:37:03.281Z,1008.36
2017-08-14T13:37:38.588Z,1008.33
2017-08-14T13:38:53.905Z,1008.32
2017-08-14T13:39:39.378Z,1008.32
2017-08-14T13:41:35.347Z,1008.37
2017-08-14T13:42:11.230Z,1008.35
2017-08-14T13:42:46.548Z,1008.39
2017-08-14T13:43:30.851Z,1008.31
2017-08-14T13:44:07.731Z,1008.30
2017-08-14T13:45:05.444Z,1008.35
2017-08-14T13:45:53.030Z,1008.24
2017-08-14T13:46:29.007Z,1008.34
2017-08-14T13:47:38.895Z,1008.25
2017-08-14T13:48:19.835Z,1008.28
2017-08-14T13:49:20.932Z,1008.29
2017-08-14T13:50:25.717Z,1008.42
2017-08-14T13:51:18.771Z,1008.17
2017-08-14T13:52:00.892Z,1008.22
2017-08-14T13:53:09.420Z,1008.29
2017-08-14T13:53:46.019Z,1008.21
2017-08-14T13:54:23.523Z,1008.20
2017-08-14T13:55:05.587Z,1008.26
2017-08-14T13:55:43.147Z,1008.25
2017-08-14T13:56:24.844Z,1008.18
2017-08-14T13:57:28.476Z,1008.18
2017-08-14T13:58:03.823Z,1008.16
2017-08-14T13:58:41.137Z,1008.12
2017-08-14T13:59:53.854Z,1008.09
2017-08-14T14:01:00.089Z,1008.23
2017-08-14T14:01:41.830Z,1008.19
2017-08-14T14:02:25.143Z,1008.27
2017-08-14T14:03:00.452Z,1008.16
2017-08-14T14:03:41.592Z,1008.21
2017-08-14T14:04:19.106Z,1008.25
2017-08-14T14:04:58.599Z,1008.22
2017-08-14T14:05:46.177Z,1008.20
2017-08-14T14:06:26.315Z,1008.20
2017-08-14T14:07:02.389Z,1008.19
2017-08-14T14:07:38.257Z,1008.25
2017-08-14T14:08:22.451Z,1008.13
2017-08-14T14:09:00.979Z,1008.17
2017-08-14T14:09:45.320Z,1008.08
2017-08-14T14:10:27.028Z,1008.08
2017-08-14T14:11:03.019Z,1008.08
2017-08-14T14:12:14.398Z,1008.13
2017-08-14T14:13:04.396Z,1008.10
2017-08-14T14:13:46.548Z,1008.04
2017-08-14T14:14:53.608Z,1008.13
2017-08-14T14:15:30.680Z,1008.10
2017-08-14T14:16:07.276Z,1008.02
2017-08-14T14:16:44.504Z,1008.02
2017-08-14T14:17:39.511Z,1008.06
2017-08-14T14:18:16.683Z,1008.07
2017-08-14T14:18:52.898Z,1008.01
2017-08-14T14:19:37.875Z,1008.03
2017-08-14T14:20:27.579Z,1008.00
2017-08-14T14:21:04.535Z,1008.02
2017-08-14T14:21:42.447Z,1007.98
2017-08-14T14:22:27.644Z,1008.00
2017-08-14T14:23:04.948Z,1008.03
2017-08-14T14:23:42.855Z,1008.01
2017-08-14T14:24:25.887Z,1007.99
2017-08-14T14:26:19.655Z,1008.04
2017-08-14T14:26:58.195Z,1008.02
2017-08-14T14:27:35.553Z,1008.12
2017-08-14T14:28:29.084Z,1007.98
2017-08-14T14:29:04.967Z,1007.89
2017-08-14T14:29:40.332Z,1007.94
2017-08-14T14:30:15.633Z,1007.91
2017-08-14T14:31:21.372Z,1007.88
2017-08-14T14:32:28.993Z,1008.05
2017-08-14T14:33:03.923Z,1007.84
2017-08-14T14:33:54.396Z,1007.88
2017-08-14T14:34:31.532Z,1007.87
2017-08-14T14:35:07.498Z,1007.85
2017-08-14T14:35:42.943Z,1007.88
2017-08-14T14:36:18.514Z,1007.84
2017-08-14T14:36:54.377Z,1007.89
2017-08-14T14:37:31.991Z,1007.89
2017-08-14T14:38:08.780Z,1007.81
2017-08-14T14:39:09.853Z,1007.90
2017-08-14T14:39:59.575Z,1007.89
2017-08-14T14:40:36.543Z,1007.82
2017-08-14T14:41:11.847Z,1007.86
2017-08-14T14:42:07.981Z,1007.88
2017-08-14T14:42:50.667Z,1007.86
2017-08-14T14:43:34.863Z,1007.78
2017-08-14T14:44:42.619Z,1007.92
2017-08-14T14:45:48.828Z,1007.64
2017-08-14T14:47:02.869Z,1007.76
2017-08-14T14:48:18.014Z,1007.88
2017-08-14T14:49:07.808Z,1007.76
2017-08-14T14:50:17.715Z,1007.78
2017-08-14T14:51:11.264Z,1007.74
2017-08-14T14:51:52.324Z,1007.70
2017-08-14T14:52:33.106Z,1007.63
2017-08-14T14:53:08.453Z,1007.71
2017-08-14T14:53:44.312Z,1007.71
2017-08-14T14:54:59.105Z,1007.66
2017-08-14T14:55:55.233Z,1007.60
2017-08-14T14:56:36.542Z,1007.58
2017-08-14T14:57:40.614Z,1007.74
2017-08-14T14:58:17.932Z,1007.59
2017-08-14T14:58:54.151Z,1007.53
2017-08-14T14:59:49.352Z,1007.57
2017-08-14T15:00:27.875Z,1007.58
2017-08-14T15:01:04.158Z,1007.62
2017-08-14T15:01:53.851Z,1007.64
2017-08-14T15:02:37.241Z,1007.58
2017-08-14T15:03:32.394Z,1007.63
2017-08-14T15:04:18.935Z,1007.53
2017-08-14T15:04:55.207Z,1007.57
2017-08-14T15:05:34.376Z,1007.60
2017-08-14T15:06:33.691Z,1007.53
2017-08-14T15:07:50.031Z,1007.63
2017-08-14T15:08:28.526Z,1007.56
2017-08-14T15:09:10.904Z,1007.56
2017-08-14T15:10:03.811Z,1007.60
2017-08-14T15:10:58.335Z,1007.57
2017-08-14T15:12:00.883Z,1007.55
2017-08-14T15:12:44.528Z,1007.52
2017-08-14T15:13:24.709Z,1007.55
2017-08-14T15:14:22.068Z,1007.48
2017-08-14T15:15:28.883Z,1007.62
2017-08-14T15:16:11.933Z,1007.54
2017-08-14T15:16:57.072Z,1007.52
2017-08-14T15:17:36.043Z,1007.56
2017-08-14T15:18:43.843Z,1007.64
2017-08-14T15:19:36.209Z,1007.47
2017-08-14T15:20:16.306Z,1007.48
2017-08-14T15:21:12.436Z,1007.48
2017-08-14T15:21:48.744Z,1007.51
2017-08-14T15:22:25.608Z,1007.41
2017-08-14T15:23:01.716Z,1007.46
2017-08-14T15:23:42.695Z,1007.44
2017-08-14T15:24:43.043Z,1007.47
2017-08-14T15:25:19.019Z,1007.51
2017-08-14T15:25:55.896Z,1007.55
2017-08-14T15:26:31.913Z,1007.49
2017-08-14T15:27:21.596Z,1007.42
2017-08-14T15:27:57.901Z,1007.44
2017-08-14T15:28:35.471Z,1007.48
2017-08-14T15:29:16.560Z,1007.46
2017-08-14T15:30:22.948Z,1007.41
2017-08-14T15:31:02.386Z,1007.40
2017-08-14T15:31:40.937Z,1007.41
2017-08-14T15:33:15.715Z,1007.42
2017-08-14T15:33:57.448Z,1007.37
2017-08-14T15:34:32.723Z,1007.39
2017-08-14T15:35:08.275Z,1007.37
2017-08-14T15:36:00.328Z,1007.36
2017-08-14T15:37:29.231Z,1007.44
2017-08-14T15:38:04.611Z,1007.39
2017-08-14T15:38:42.769Z,1007.48
2017-08-14T15:39:19.349Z,1007.43
2017-08-14T15:40:18.133Z,1007.34
2017-08-14T15:41:25.012Z,1007.47
2017-08-14T15:42:16.425Z,1007.37
2017-08-14T15:43:06.024Z,1007.37
2017-08-14T15:43:41.354Z,1007.35
2017-08-14T15:44:48.232Z,1007.59
2017-08-14T15:45:31.504Z,1007.34
2017-08-14T15:46:17.952Z,1007.40
2017-08-14T15:46:57.077Z,1007.45
2017-08-14T15:47:33.861Z,1007.37
2017-08-14T15:48:09.200Z,1007.32
2017-08-14T15:48:44.585Z,1007.30
2017-08-14T15:49:21.447Z,1007.30
2017-08-14T15:50:15.548Z,1007.34
2017-08-14T15:51:10.795Z,1007.30
2017-08-14T15:52:01.593Z,1007.25
2017-08-14T15:52:42.119Z,1007.34
2017-08-14T15:53:23.063Z,1007.27
2017-08-14T15:53:59.104Z,1007.33
2017-08-14T15:54:34.418Z,1007.28
2017-08-14T15:55:39.496Z,1007.27
2017-08-14T15:56:25.113Z,1007.31
2017-08-14T15:57:00.336Z,1007.30
2017-08-14T15:57:35.660Z,1007.20
2017-08-14T15:58:16.747Z,1007.24
2017-08-14T15:59:00.067Z,1007.22
2017-08-14T15:59:44.994Z,1007.23
2017-08-14T16:00:41.124Z,1007.22
2017-08-14T16:01:18.051Z,1007.18
2017-08-14T16:01:56.576Z,1007.22
2017-08-14T16:02:41.508Z,1007.12
2017-08-14T16:03:18.439Z,1007.21
2017-08-14T16:04:00.200Z,1007.24
2017-08-14T16:04:50.571Z,1007.20
2017-08-14T16:06:34.847Z,1007.18
2017-08-14T16:15:11.160Z,1007.11
2017-08-14T16:16:18.147Z,1007.25
2017-08-14T16:16:52.555Z,1007.03
2017-08-14T16:17:27.936Z,1006.99
2017-08-14T16:18:06.391Z,1007.05
2017-08-14T16:18:40.592Z,1007.08
2017-08-14T16:19:19.115Z,1007.08
2017-08-14T16:20:04.043Z,1007.06
2017-08-14T16:20:55.372Z,1007.02
2017-08-14T16:21:40.328Z,1007.10
2017-08-14T16:22:15.631Z,1007.07
2017-08-14T16:22:50.955Z,1007.03
2017-08-14T16:23:29.491Z,1007.07
2017-08-14T16:24:04.812Z,1007.07
2017-08-14T16:24:49.740Z,1006.99
2017-08-14T16:25:28.271Z,1006.97
2017-08-14T16:26:16.399Z,1007.09
2017-08-14T16:26:51.956Z,1007.09
2017-08-14T16:27:35.055Z,1006.99
2017-08-14T16:28:10.384Z,1007.02
2017-08-14T16:28:47.320Z,1006.98
2017-08-14T16:29:22.933Z,1006.98
2017-08-14T16:29:58.133Z,1007.00
2017-08-14T16:31:05.490Z,1007.15
2017-08-14T16:32:10.926Z,1006.97
2017-08-14T16:32:52.618Z,1006.97
2017-08-14T16:33:27.947Z,1006.99
2017-08-14T16:34:03.271Z,1007.05
2017-08-14T16:34:56.208Z,1007.03
2017-08-14T16:35:31.528Z,1007.04
2017-08-14T16:36:11.663Z,1007.01
2017-08-14T16:37:19.926Z,1007.13
2017-08-14T16:38:05.395Z,1007.03
2017-08-14T16:38:58.323Z,1006.89
2017-08-14T16:39:43.244Z,1006.96
2017-08-14T16:40:21.779Z,1006.94
2017-08-14T16:41:05.099Z,1006.96
2017-08-14T16:41:42.023Z,1006.95
2017-08-14T16:42:17.361Z,1006.90
2017-08-14T16:42:55.900Z,1006.95
2017-08-14T16:43:41.164Z,1006.84
2017-08-14T16:45:05.884Z,1006.92
2017-08-14T16:45:41.198Z,1006.83
2017-08-14T16:46:18.115Z,1006.91
2017-08-14T16:46:55.052Z,1006.82
2017-08-14T16:47:30.615Z,1006.88
2017-08-14T16:48:05.712Z,1006.84
2017-08-14T16:48:47.442Z,1006.86
2017-08-14T16:49:29.167Z,1006.86
2017-08-14T16:50:10.898Z,1006.92
2017-08-14T16:50:47.811Z,1006.92
2017-08-14T16:51:23.144Z,1006.82
2017-08-14T16:52:01.668Z,1006.75
2017-08-14T16:52:37.024Z,1006.88
2017-08-14T16:53:12.323Z,1006.82
2017-08-14T16:54:06.866Z,1006.83
2017-08-14T16:54:42.178Z,1006.85
2017-08-14T16:55:27.110Z,1006.86
2017-08-14T16:56:02.435Z,1006.86
2017-08-14T16:56:37.763Z,1006.95
2017-08-14T16:57:13.087Z,1006.94
2017-08-14T16:57:50.044Z,1007.00
2017-08-14T16:58:25.343Z,1006.84
2017-08-14T16:59:00.676Z,1006.87
2017-08-14T16:59:36.007Z,1006.87
2017-08-14T17:00:11.332Z,1006.86
2017-08-14T17:00:46.681Z,1006.92